Latest Weather Observations for St Kilda Harbour RMYS

IDV60801

Issued at 3:02 pm EDT Monday 5 December 2016 (issued every 30 minutes, with the page automatically refreshed every 10 minutes)

About weather observations | Map of weather stations | Latest weather observations for VIC | Other Formats
Station Details ID: 086220 Name: ST KILDA HARBOUR - RMYS Lat: -37.86 Lon: 144.96 Height: 6.4 m
Data from the previous 72 hours. | See also: Recent months for locations in Victoria
Date/Time
EDT
Temp
°C
App
Temp
°C
Dew
Point
°C
Rel
Hum
%
Delta-T
°C
Wind Press
QNH
hPa
Press
MSL
hPa
Rain since
9am
mm
Dir  Spd
km/h
Gust
km/h
Spd
kts
Gust
kts
05/03:00pm - - - - - S 30 33 16 18 - - -
05/02:30pm - - - - - SSE 28 33 15 18 - - -
05/02:00pm - - - - - S 28 32 15 17 - - -
05/01:30pm - - - - - S 28 32 15 17 - - -
05/01:00pm - - - - - SSE 24 28 13 15 - - -
05/12:30pm - - - - - S 20 26 11 14 - - -
05/12:00pm - - - - - S 15 19 8 10 - - -
05/11:30am - - - - - SW 19 22 10 12 - - -
05/11:00am - - - - - SW 22 28 12 15 - - -
05/10:30am - - - - - WSW 26 32 14 17 - - -
05/10:00am - - - - - SW 26 32 14 17 - - -
05/09:30am - - - - - WSW 32 37 17 20 - - -
05/09:00am - - - - - WSW 33 37 18 20 - - -
05/08:30am - - - - - SW 37 44 20 24 - - -
05/08:00am - - - - - WSW 30 35 16 19 - - -
05/07:30am - - - - - WSW 28 33 15 18 - - -
05/07:00am - - - - - WSW 32 39 17 21 - - -
05/06:30am - - - - - WSW 41 50 22 27 - - -
05/06:00am - - - - - SW 46 59 25 32 - - -
05/05:35am - - - - - WSW 37 57 20 31 - - -
05/05:30am - - - - - WNW 30 50 16 27 - - -
05/05:00am - - - - - NW 28 35 15 19 - - -
05/04:30am - - - - - NW 20 28 11 15 - - -
05/04:00am - - - - - NNW 24 37 13 20 - - -
05/03:30am - - - - - N 30 43 16 23 - - -
05/03:00am - - - - - N 30 50 16 27 - - -
05/02:56am - - - - - N 28 50 15 27 - - -
05/02:30am - - - - - N 28 43 15 23 - - -
05/02:11am - - - - - N 30 48 16 26 - - -
05/02:00am - - - - - N 30 46 16 25 - - -
05/01:30am - - - - - N 32 44 17 24 - - -
05/01:07am - - - - - N 33 56 18 30 - - -
05/01:00am - - - - - N 33 50 18 27 - - -
05/12:30am - - - - - N 33 48 18 26 - - -
05/12:00am - - - - - N 30 44 16 24 - - -
 
Date/Time
EDT
Temp
°C
App
Temp
°C
Dew
Point
°C
Rel
Hum
%
Delta-T
°C
Wind Press
QNH
hPa
Press
MSL
hPa
Rain since
9am
mm
Dir  Spd
km/h
Gust
km/h
Spd
kts
Gust
kts
04/11:32pm - - - - - N 32 50 17 27 - - -
04/11:30pm - - - - - N 33 50 18 27 - - -
04/11:12pm - - - - - N 32 52 17 28 - - -
04/11:00pm - - - - - N 28 43 15 23 - - -
04/10:30pm - - - - - NNE 19 30 10 16 - - -
04/10:00pm - - - - - NNE 19 28 10 15 - - -
04/09:30pm - - - - - NNE 20 30 11 16 - - -
04/09:00pm - - - - - NNE 15 26 8 14 - - -
04/08:30pm - - - - - NE 11 20 6 11 - - -
04/08:00pm - - - - - NNE 17 24 9 13 - - -
04/07:30pm - - - - - N 7 11 4 6 - - -
04/07:00pm - - - - - NW 20 30 11 16 - - -
04/06:30pm - - - - - WNW 41 50 22 27 - - -
04/06:05pm - - - - - WNW 52 70 28 38 - - -
04/06:00pm - - - - - WNW 56 70 30 38 - - -
04/05:47pm - - - - - NW 46 67 25 36 - - -
04/05:30pm - - - - - NNW 33 50 18 27 - - -
04/05:23pm - - - - - N 28 46 15 25 - - -
04/05:00pm - - - - - NNE 6 9 3 5 - - -
04/04:30pm - - - - - NNE 11 17 6 9 - - -
04/04:00pm - - - - - NNE 13 20 7 11 - - -
04/03:30pm - - - - - N 17 24 9 13 - - -
04/03:00pm - - - - - N 11 19 6 10 - - -
04/02:30pm - - - - - N 28 41 15 22 - - -
04/02:00pm - - - - - N 30 44 16 24 - - -
04/01:30pm - - - - - N 28 44 15 24 - - -
04/01:00pm - - - - - NNW 20 32 11 17 - - -
04/12:30pm - - - - - NNW 24 35 13 19 - - -
04/12:00pm - - - - - NNW 32 44 17 24 - - -
04/11:35am - - - - - N 32 50 17 27 - - -
04/11:30am - - - - - NNW 37 54 20 29 - - -
04/11:21am - - - - - NNW 22 48 12 26 - - -
04/11:19am - - - - - NW 15 39 8 21 - - -
04/11:00am - - - - - NW 11 15 6 8 - - -
04/10:30am - - - - - NNE 13 20 7 11 - - -
04/10:00am - - - - - E 9 13 5 7 - - -
04/09:30am - - - - - ENE 7 11 4 6 - - -
04/09:00am - - - - - NE 9 13 5 7 - - -
04/08:30am - - - - - NE 6 7 3 4 - - -
04/08:00am - - - - - NNE 9 13 5 7 - - -
04/07:30am - - - - - NE 6 9 3 5 - - -
04/07:00am - - - - - NE 7 13 4 7 - - -
04/06:30am - - - - - NE 7 11 4 6 - - -
04/06:00am - - - - - NNE 7 9 4 5 - - -
04/05:30am - - - - - NNE 6 9 3 5 - - -
04/05:00am - - - - - N 6 7 3 4 - - -
04/04:30am - - - - - NNW 9 11 5 6 - - -
04/04:00am - - - - - NNW 9 13 5 7 - - -
04/03:30am - - - - - NNW 11 13 6 7 - - -
04/03:00am - - - - - NNW 11 15 6 8 - - -
04/02:30am - - - - - NW 11 13 6 7 - - -
04/02:00am - - - - - N 6 9 3 5 - - -
04/01:30am - - - - - E 4 4 2 2 - - -
04/01:00am - - - - - ESE 4 6 2 3 - - -
04/12:30am - - - - - ESE 6 7 3 4 - - -
04/12:00am - - - - - ESE 4 7 2 4 - - -
 
Date/Time
EDT
Temp
°C
App
Temp
°C
Dew
Point
°C
Rel
Hum
%
Delta-T
°C
Wind Press
QNH
hPa
Press
MSL
hPa
Rain since
9am
mm
Dir  Spd
km/h
Gust
km/h
Spd
kts
Gust
kts
03/11:30pm - - - - - SE 7 11 4 6 - - -
03/11:00pm - - - - - SE 9 13 5 7 - - -
03/10:30pm - - - - - SE 9 15 5 8 - - -
03/10:00pm - - - - - ESE 9 15 5 8 - - -
03/09:30pm - - - - - SE 11 19 6 10 - - -
03/09:00pm - - - - - ESE 17 24 9 13 - - -
03/08:30pm - - - - - ESE 19 28 10 15 - - -
03/08:00pm - - - - - SE 24 32 13 17 - - -
03/07:30pm - - - - - ESE 24 33 13 18 - - -
03/07:00pm - - - - - SE 24 32 13 17 - - -
03/06:30pm - - - - - SE 24 32 13 17 - - -
03/06:00pm - - - - - S 28 32 15 17 - - -
03/05:30pm - - - - - S 30 33 16 18 - - -
03/05:00pm - - - - - S 28 33 15 18 - - -
03/04:30pm - - - - - S 30 33 16 18 - - -
03/04:00pm - - - - - S 28 32 15 17 - - -
03/03:30pm - - - - - S 28 32 15 17 - - -
03/03:00pm - - - - - S 28 32 15 17 - - -
03/02:30pm - - - - - S 28 32 15 17 - - -
03/02:00pm - - - - - SSW 22 26 12 14 - - -
03/01:30pm - - - - - SSW 19 22 10 12 - - -
03/01:00pm - - - - - SSW 19 20 10 11 - - -
03/12:30pm - - - - - SW 19 22 10 12 - - -
03/12:00pm - - - - - SSW 19 22 10 12 - - -
03/11:30am - - - - - SSW 22 26 12 14 - - -
03/11:00am - - - - - SSW 20 24 11 13 - - -
03/10:30am - - - - - SSW 20 24 11 13 - - -
03/10:00am - - - - - S 17 22 9 12 - - -
03/09:30am - - - - - SE 9 19 5 10 - - -
03/09:00am - - - - - ESE 11 17 6 9 - - -
03/08:30am - - - - - SE 11 19 6 10 - - -
03/08:00am - - - - - SE 9 15 5 8 - - -
03/07:30am - - - - - ESE 7 11 4 6 - - -
03/07:00am - - - - - ESE 9 13 5 7 - - -
03/06:30am - - - - - ESE 7 11 4 6 - - -
03/06:00am - - - - - E 7 11 4 6 - - -
03/05:30am - - - - - E 7 11 4 6 - - -
03/05:00am - - - - - E 9 11 5 6 - - -
03/04:30am - - - - - E 9 13 5 7 - - -
03/04:00am - - - - - ESE 9 13 5 7 - - -
03/03:30am - - - - - E 11 15 6 8 - - -
03/03:00am - - - - - E 9 13 5 7 - - -
03/02:30am - - - - - ESE 11 15 6 8 - - -
03/02:00am - - - - - SE 13 17 7 9 - - -
03/01:30am - - - - - ESE 9 15 5 8 - - -
03/01:00am - - - - - ESE 11 15 6 8 - - -
03/12:30am - - - - - ESE 9 13 5 7 - - -
03/12:00am - - - - - SE 11 17 6 9 - - -
 
Date/Time
EDT
Temp
°C
App
Temp
°C
Dew
Point
°C
Rel
Hum
%
Delta-T
°C
Wind Press
QNH
hPa
Press
MSL
hPa
Rain since
9am
mm
Dir  Spd
km/h
Gust
km/h
Spd
kts
Gust
kts
02/11:30pm - - - - - ESE 11 15 6 8 - - -
02/11:00pm - - - - - SE 13 17 7 9 - - -
02/10:30pm - - - - - ESE 11 15 6 8 - - -
02/10:00pm - - - - - SE 17 24 9 13 - - -
02/09:30pm - - - - - SE 20 28 11 15 - - -
02/09:00pm - - - - - S 30 37 16 20 - - -
02/08:30pm - - - - - S 35 41 19 22 - - -
02/08:00pm - - - - - S 35 41 19 22 - - -
02/07:30pm - - - - - S 33 41 18 22 - - -
02/07:00pm - - - - - S 33 37 18 20 - - -
02/06:30pm - - - - - S 33 39 18 21 - - -
02/06:00pm - - - - - S 35 39 19 21 - - -
02/05:30pm - - - - - S 33 39 18 21 - - -
02/05:00pm - - - - - S 33 37 18 20 - - -
02/04:30pm - - - - - S 33 39 18 21 - - -
02/04:00pm - - - - - S 32 37 17 20 - - -
02/03:30pm - - - - - S 33 39 18 21 - - -

Other Formats:

Comma delimited format used in spreadsheet applications
http://www.bom.gov.au/fwo/IDV60801/IDV60801.95864.axf

JavaScript Object Notation format (JSON) in row-major order
http://www.bom.gov.au/fwo/IDV60801/IDV60801.95864.json